Time;durP1;ratioP1;P1;durP2;ratioP2;P2;SDS_P1;SDS_P2;PMS_P1;PMS_P2;Temp;Humidity;BMP_temperature;BMP_pressure;BME280_temperature;BME280_humidity;BME280_pressure;Samples;Min_cycle;Max_cycle;Signal;HPM_P1;HPM_P2
2023/02/09 00:02:08;;;;;;;34.20;26.07;;;-3.10;99.90;;;;;;4955025;28;20855;-80
2023/02/09 00:04:34;;;;;;;33.90;25.00;;;-3.20;99.90;;;;;;4952885;29;21060;-80
2023/02/09 00:07:03;;;;;;;32.65;25.90;;;-3.20;99.90;;;;;;4954128;29;20384;-79
2023/02/09 00:09:29;;;;;;;35.33;26.95;;;-3.30;99.90;;;;;;4953781;29;20837;-80
2023/02/09 00:14:39;;;;;;;32.58;25.83;;;-3.40;99.90;;;;;;4954772;28;20391;-79
2023/02/09 00:17:06;;;;;;;37.03;26.70;;;-3.40;99.90;;;;;;4953216;29;20396;-79
2023/02/09 00:19:32;;;;;;;34.70;26.50;;;-3.40;99.90;;;;;;4938127;28;20452;-80
2023/02/09 00:21:58;;;;;;;33.72;26.25;;;-3.40;99.90;;;;;;4950203;28;20412;-80
2023/02/09 00:24:24;;;;;;;33.55;25.25;;;-3.70;99.90;;;;;;4953524;28;20946;-80
2023/02/09 00:26:50;;;;;;;34.42;26.25;;;-3.50;99.90;;;;;;4953293;28;20391;-80
2023/02/09 00:29:21;;;;;;;32.22;26.00;;;-3.60;99.90;;;;;;4952217;28;20851;-79
2023/02/09 00:31:47;;;;;;;34.17;26.35;;;-3.80;99.90;;;;;;4952139;28;20392;-78
2023/02/09 00:34:13;;;;;;;34.35;26.60;;;-3.80;99.90;;;;;;4954415;28;20384;-79
2023/02/09 00:36:39;;;;;;;34.73;27.27;;;-4.20;99.90;;;;;;4952002;28;20393;-79
2023/02/09 00:39:04;;;;;;;36.15;26.75;;;-4.20;99.90;;;;;;4953730;28;20380;-80
2023/02/09 00:44:14;;;;;;;36.50;27.48;;;-4.20;99.90;;;;;;4954347;28;20395;-79
2023/02/09 00:46:40;;;;;;;33.80;26.07;;;-4.40;99.90;;;;;;4953329;29;20891;-79
2023/02/09 00:49:06;;;;;;;36.67;26.33;;;-4.40;99.90;;;;;;4936316;29;20463;-79
2023/02/09 00:51:31;;;;;;;36.97;28.47;;;-4.60;99.90;;;;;;4951894;28;20404;-79
2023/02/09 00:53:57;;;;;;;34.63;26.87;;;-4.70;99.90;;;;;;4936595;29;20384;-79
2023/02/09 00:56:23;;;;;;;35.30;27.03;;;-4.80;99.90;;;;;;4953036;28;20384;-78
2023/02/09 00:58:49;;;;;;;34.40;26.80;;;-4.80;99.90;;;;;;4952474;28;20372;-78
2023/02/09 01:01:14;;;;;;;36.40;27.07;;;-4.70;99.90;;;;;;4950793;28;20410;-79
2023/02/09 01:03:41;;;;;;;35.10;26.00;;;-4.90;99.90;;;;;;4948062;28;20400;-79
2023/02/09 01:06:08;;;;;;;35.05;26.63;;;-4.90;99.90;;;;;;4952330;28;20433;-80
2023/02/09 01:08:34;;;;;;;33.55;25.42;;;-5.10;99.90;;;;;;4952466;28;20440;-80
2023/02/09 01:11:07;;;;;;;32.65;26.05;;;-5.00;99.90;;;;;;4950672;28;20396;-79
2023/02/09 01:13:32;;;;;;;34.95;26.70;;;-5.00;99.90;;;;;;4953230;29;20379;-79
2023/02/09 01:15:58;;;;;;;32.93;25.40;;;-5.10;99.90;;;;;;4953338;29;20759;-79
2023/02/09 01:18:24;;;;;;;37.53;28.93;;;-5.20;99.90;;;;;;4951274;28;20909;-80
2023/02/09 01:20:49;;;;;;;36.67;27.73;;;-5.20;99.90;;;;;;4952128;28;20506;-80
2023/02/09 01:23:15;;;;;;;41.23;30.53;;;-5.30;99.90;;;;;;4952765;29;20469;-79
2023/02/09 01:25:40;;;;;;;39.20;29.90;;;-5.40;99.90;;;;;;4953088;29;20384;-80
2023/02/09 01:28:06;;;;;;;40.67;30.25;;;-5.40;99.90;;;;;;4934466;28;20480;-78
2023/02/09 01:30:33;;;;;;;38.65;29.90;;;-5.40;99.90;;;;;;4952826;29;20388;-80
2023/02/09 01:32:59;;;;;;;40.15;30.10;;;-5.40;99.90;;;;;;4953260;29;20388;-78
2023/02/09 01:35:24;;;;;;;38.60;28.77;;;-5.50;99.90;;;;;;4951122;28;20494;-78
2023/02/09 01:37:50;;;;;;;37.07;28.03;;;-5.40;99.90;;;;;;4952830;29;21298;-78
2023/02/09 01:40:15;;;;;;;37.50;28.27;;;-5.50;99.90;;;;;;4951362;28;20475;-78
2023/02/09 01:42:41;;;;;;;40.07;29.37;;;-5.60;99.90;;;;;;4918814;29;20517;-78
2023/02/09 01:45:21;;;;;;;39.07;29.00;;;-5.70;99.90;;;;;;4933620;29;20405;-79
2023/02/09 01:47:53;;;;;;;38.42;28.80;;;-5.70;99.90;;;;;;4932816;29;20382;-80
2023/02/09 01:50:20;;;;;;;40.70;30.10;;;-5.50;99.90;;;;;;4948688;28;20423;-79
2023/02/09 01:52:47;;;;;;;35.45;28.25;;;-5.60;99.90;;;;;;4952251;29;20389;-78
2023/02/09 01:55:17;;;;;;;36.10;27.45;;;-5.60;99.90;;;;;;4952206;29;20847;-79
2023/02/09 01:57:49;;;;;;;35.65;27.77;;;-5.70;99.90;;;;;;4952035;29;20895;-80
2023/02/09 02:00:18;;;;;;;38.72;29.95;;;-5.70;99.90;;;;;;4951048;28;20411;-80
2023/02/09 02:02:55;;;;;;;37.35;28.55;;;-5.70;99.90;;;;;;4952840;29;20891;-79
2023/02/09 02:05:23;;;;;;;37.30;28.50;;;-5.80;99.90;;;;;;4951939;29;20528;-80
2023/02/09 02:07:48;;;;;;;35.58;27.73;;;-5.90;99.90;;;;;;4944265;29;20376;-79
2023/02/09 02:10:14;;;;;;;36.20;27.65;;;-5.80;99.90;;;;;;4952702;29;20555;-79
2023/02/09 02:12:40;;;;;;;34.42;27.58;;;-5.80;99.90;;;;;;5207127;23;20441;-79
2023/02/09 02:15:06;;;;;;;34.55;26.55;;;-6.00;99.90;;;;;;4961411;28;20405;-80
2023/02/09 02:17:47;;;;;;;36.45;28.52;;;-6.00;99.90;;;;;;4985055;28;21644;-78
2023/02/09 02:20:37;;;;;;;37.65;28.98;;;-5.90;99.90;;;;;;4990321;28;20407;-80
2023/02/09 02:23:21;;;;;;;37.63;28.38;;;-6.00;99.90;;;;;;4986537;28;20476;-79
2023/02/09 02:25:53;;;;;;;40.22;29.85;;;-5.90;99.90;;;;;;4986661;28;20784;-78
2023/02/09 02:28:53;;;;;;;37.10;28.08;;;-6.20;99.90;;;;;;4989045;28;20377;-79
2023/02/09 02:31:52;;;;;;;37.70;28.05;;;-6.20;99.90;;;;;;4988917;28;20460;-80
2023/02/09 02:34:34;;;;;;;37.53;28.70;;;-6.20;99.90;;;;;;4980104;28;20456;-79
2023/02/09 02:37:22;;;;;;;36.85;27.55;;;-6.30;99.90;;;;;;4970666;28;20385;-79
2023/02/09 02:40:13;;;;;;;40.45;29.55;;;-6.20;99.90;;;;;;4964731;28;20386;-80
2023/02/09 02:42:51;;;;;;;36.38;28.27;;;-6.30;99.90;;;;;;4970782;28;20504;-78
2023/02/09 02:45:46;;;;;;;39.33;29.17;;;-6.30;99.90;;;;;;4983386;28;20413;-79
2023/02/09 02:48:17;;;;;;;38.47;30.15;;;-6.50;99.90;;;;;;4990208;28;20380;-80
2023/02/09 02:50:54;;;;;;;41.15;30.45;;;-6.40;99.90;;;;;;4989751;28;20395;-79
2023/02/09 02:53:25;;;;;;;43.13;30.73;;;-6.20;99.90;;;;;;4990238;28;20388;-79
2023/02/09 02:55:53;;;;;;;41.17;31.60;;;-6.40;99.90;;;;;;4980106;28;20440;-79
2023/02/09 02:58:21;;;;;;;43.95;33.55;;;-6.40;99.90;;;;;;4989525;28;20384;-79
2023/02/09 03:00:51;;;;;;;39.65;30.83;;;-6.60;99.90;;;;;;4978418;28;20410;-80
2023/02/09 03:03:30;;;;;;;42.03;32.00;;;-6.60;99.90;;;;;;4974754;28;20812;-79
2023/02/09 03:06:00;;;;;;;43.70;31.85;;;-6.50;99.90;;;;;;4974227;28;20390;-80
2023/02/09 03:08:26;;;;;;;43.35;32.47;;;-6.50;99.90;;;;;;4972260;28;20504;-79
2023/02/09 03:10:53;;;;;;;40.93;31.33;;;-6.50;99.90;;;;;;4973662;28;21015;-78
2023/02/09 03:13:54;;;;;;;47.40;33.78;;;-6.40;99.90;;;;;;4956541;28;20395;-80
2023/02/09 03:16:35;;;;;;;46.17;34.17;;;-6.60;99.90;;;;;;4972834;28;20390;-79
2023/02/09 03:19:13;;;;;;;45.55;32.15;;;-6.80;99.90;;;;;;4974464;28;20408;-78
2023/02/09 03:21:51;;;;;;;42.72;31.27;;;-6.80;99.90;;;;;;4992313;28;20806;-80
2023/02/09 03:24:49;;;;;;;43.10;32.10;;;-6.80;99.90;;;;;;4993632;28;20874;-79
2023/02/09 03:27:20;;;;;;;42.22;32.38;;;-6.80;99.90;;;;;;4992736;28;20376;-78
2023/02/09 03:29:49;;;;;;;40.67;30.60;;;-6.80;99.90;;;;;;4990608;28;20432;-78
2023/02/09 03:32:17;;;;;;;43.10;32.70;;;-6.70;99.90;;;;;;4975906;28;20485;-80
2023/02/09 03:34:43;;;;;;;44.53;32.70;;;-6.80;99.90;;;;;;4991112;28;21111;-80
2023/02/09 03:37:09;;;;;;;43.72;31.88;;;-6.80;99.90;;;;;;4992894;28;20373;-79
2023/02/09 03:39:35;;;;;;;42.95;31.35;;;-6.70;99.90;;;;;;4989608;28;20408;-80
2023/02/09 03:42:01;;;;;;;39.38;29.58;;;-6.70;99.90;;;;;;4992444;28;20451;-80
2023/02/09 03:44:27;;;;;;;41.07;30.43;;;-6.60;99.90;;;;;;4991889;28;20440;-78
2023/02/09 03:46:58;;;;;;;40.80;30.37;;;-6.40;99.90;;;;;;4992102;28;20377;-78
2023/02/09 03:49:33;;;;;;;41.10;31.75;;;-6.50;99.90;;;;;;4979841;28;20414;-78
2023/02/09 03:51:59;;;;;;;42.22;30.23;;;-6.50;99.90;;;;;;4973463;28;20885;-78
2023/02/09 03:54:29;;;;;;;41.85;31.38;;;-6.50;99.90;;;;;;4965356;28;20408;-78
2023/02/09 03:56:56;;;;;;;44.40;31.85;;;-6.60;99.90;;;;;;4991898;28;20381;-78
2023/02/09 03:59:24;;;;;;;41.83;30.60;;;-6.70;99.90;;;;;;4990420;28;20432;-79
2023/02/09 04:01:51;;;;;;;40.20;29.77;;;-6.70;99.90;;;;;;4992238;28;20412;-80
2023/02/09 04:04:17;;;;;;;36.25;28.40;;;-6.60;99.90;;;;;;4992651;28;20416;-80
2023/02/09 04:06:43;;;;;;;40.45;29.50;;;-6.50;99.90;;;;;;4991546;28;20385;-79
2023/02/09 04:09:10;;;;;;;36.78;28.35;;;-6.50;99.90;;;;;;4971653;28;20406;-79
2023/02/09 04:11:36;;;;;;;38.88;28.00;;;-6.40;99.90;;;;;;4962384;28;20402;-79
2023/02/09 04:14:02;;;;;;;38.07;29.17;;;-6.20;99.90;;;;;;4978884;28;20397;-79
2023/02/09 04:16:28;;;;;;;38.17;28.52;;;-6.20;99.90;;;;;;4991393;28;20395;-80
2023/02/09 04:18:54;;;;;;;38.92;29.02;;;-6.10;99.90;;;;;;4989987;28;20405;-79
2023/02/09 04:21:20;;;;;;;36.92;28.27;;;-6.20;99.90;;;;;;4991069;28;20747;-80
2023/02/09 04:23:46;;;;;;;37.33;28.27;;;-6.20;99.90;;;;;;4992229;28;20400;-79
2023/02/09 04:26:12;;;;;;;43.63;29.30;;;-6.10;99.90;;;;;;4990791;28;20396;-80
2023/02/09 04:28:38;;;;;;;42.65;30.15;;;-6.30;99.90;;;;;;4989970;28;20913;-80
2023/02/09 04:31:04;;;;;;;38.20;28.40;;;-6.40;99.90;;;;;;4988869;28;20413;-79
2023/02/09 04:33:30;;;;;;;38.83;28.95;;;-6.20;99.90;;;;;;4992233;28;20381;-79
2023/02/09 04:35:56;;;;;;;38.05;27.73;;;-6.10;99.90;;;;;;4991507;28;20476;-79
2023/02/09 04:38:22;;;;;;;38.50;29.13;;;-6.20;99.90;;;;;;4991199;28;20384;-79
2023/02/09 04:40:49;;;;;;;39.58;28.88;;;-6.20;99.90;;;;;;4989078;28;20407;-80
2023/02/09 04:43:15;;;;;;;55.67;29.38;;;-6.20;99.90;;;;;;4991477;28;20419;-79
2023/02/09 04:45:42;;;;;;;43.47;28.45;;;-6.00;99.90;;;;;;4991124;28;20373;-78
2023/02/09 04:48:12;;;;;;;38.22;27.98;;;-6.10;99.90;;;;;;4989489;28;20404;-79
2023/02/09 04:50:37;;;;;;;40.47;28.35;;;-6.20;99.90;;;;;;4992509;28;21211;-81
2023/02/09 04:53:03;;;;;;;36.00;27.20;;;-6.10;99.90;;;;;;4992992;28;20392;-80
2023/02/09 04:55:29;;;;;;;38.40;28.05;;;-6.10;99.90;;;;;;4991837;28;20399;-80
2023/02/09 05:00:39;;;;;;;41.85;28.05;;;-6.20;99.90;;;;;;4992574;28;20844;-80
2023/02/09 05:03:05;;;;;;;40.97;29.15;;;-6.00;99.90;;;;;;4989802;28;20405;-80
2023/02/09 05:05:31;;;;;;;38.85;28.33;;;-6.00;99.90;;;;;;4990970;28;20430;-80
2023/02/09 05:07:56;;;;;;;39.43;28.37;;;-6.10;99.90;;;;;;4988592;28;20963;-79
2023/02/09 05:10:22;;;;;;;35.53;26.50;;;-5.90;99.90;;;;;;4980097;28;20407;-79
2023/02/09 05:12:48;;;;;;;42.57;29.27;;;-5.90;99.90;;;;;;4990990;28;20496;-80
2023/02/09 05:15:13;;;;;;;49.27;28.87;;;-6.00;99.90;;;;;;4973324;28;20404;-80
2023/02/09 05:17:39;;;;;;;44.27;28.67;;;-6.00;99.90;;;;;;4987394;28;20412;-81
2023/02/09 05:20:07;;;;;;;57.15;30.63;;;-6.20;99.90;;;;;;4990884;28;20883;-80
2023/02/09 05:22:33;;;;;;;46.10;28.33;;;-6.00;99.90;;;;;;4989907;28;20387;-81
2023/02/09 05:24:58;;;;;;;42.80;29.93;;;-6.20;99.90;;;;;;4973363;28;20468;-81
2023/02/09 05:27:24;;;;;;;42.67;29.67;;;-6.20;99.90;;;;;;4987547;28;20427;-81
2023/02/09 05:29:50;;;;;;;48.85;30.85;;;-6.20;99.90;;;;;;4988629;28;20733;-79
2023/02/09 05:32:17;;;;;;;42.83;29.83;;;-6.10;99.90;;;;;;4979683;28;20819;-80
2023/02/09 05:34:43;;;;;;;43.00;30.85;;;-6.00;99.90;;;;;;4979367;28;20887;-81
2023/02/09 05:37:09;;;;;;;38.65;29.75;;;-5.80;99.90;;;;;;4989903;28;20391;-80
2023/02/09 05:39:35;;;;;;;41.08;30.10;;;-5.80;99.90;;;;;;4972690;28;20397;-80
2023/02/09 05:42:15;;;;;;;42.63;31.00;;;-5.90;99.90;;;;;;4972050;28;20377;-80
2023/02/09 05:44:46;;;;;;;43.05;31.45;;;-5.80;99.90;;;;;;4987831;28;20524;-80
2023/02/09 05:47:13;;;;;;;41.55;30.73;;;-5.60;99.90;;;;;;4988683;28;20842;-80
2023/02/09 05:49:39;;;;;;;41.60;31.10;;;-5.50;99.90;;;;;;4988756;28;21819;-80
2023/02/09 05:52:06;;;;;;;43.88;31.92;;;-5.40;99.90;;;;;;4989181;28;20475;-80
2023/02/09 05:54:32;;;;;;;43.42;31.13;;;-5.20;99.90;;;;;;4988101;28;20472;-80
2023/02/09 05:56:57;;;;;;;54.42;32.10;;;-5.40;99.90;;;;;;4989340;28;20451;-81
2023/02/09 05:59:23;;;;;;;40.90;29.65;;;-5.30;99.90;;;;;;4990256;28;20826;-80
2023/02/09 06:01:49;;;;;;;37.75;28.92;;;-5.30;99.90;;;;;;4988439;28;20510;-79
2023/02/09 06:04:15;;;;;;;41.60;28.90;;;-5.30;99.90;;;;;;4990304;28;20467;-80
2023/02/09 06:06:40;;;;;;;40.78;29.30;;;-5.10;99.90;;;;;;4951275;28;20418;-78
2023/02/09 06:09:06;;;;;;;39.53;29.02;;;-5.10;99.90;;;;;;4970028;28;20497;-78
2023/02/09 06:11:32;;;;;;;40.25;30.15;;;-5.30;99.90;;;;;;4967627;28;20412;-79
2023/02/09 06:13:57;;;;;;;39.78;30.10;;;-5.30;99.90;;;;;;4990290;28;20501;-80
2023/02/09 06:16:24;;;;;;;41.13;30.60;;;-5.50;99.90;;;;;;4986732;28;20409;-80
2023/02/09 06:18:49;;;;;;;41.45;30.52;;;-5.40;99.90;;;;;;4989684;28;20377;-80
2023/02/09 06:21:15;;;;;;;41.75;30.15;;;-5.20;99.90;;;;;;4988578;28;20887;-79
2023/02/09 06:23:41;;;;;;;42.03;30.17;;;-5.10;99.90;;;;;;4972364;28;20820;-79
2023/02/09 06:26:08;;;;;;;37.90;29.93;;;-5.00;99.90;;;;;;4975173;28;20429;-80
2023/02/09 06:28:34;;;;;;;38.50;29.20;;;-5.10;99.90;;;;;;4952586;28;20382;-80
2023/02/09 06:30:59;;;;;;;41.47;29.50;;;-5.00;99.90;;;;;;4952665;28;20399;-79
2023/02/09 06:33:25;;;;;;;39.08;28.63;;;-5.00;99.90;;;;;;4953420;28;20911;-80
2023/02/09 06:35:52;;;;;;;39.15;30.23;;;-5.10;99.90;;;;;;4981380;28;20767;-79
2023/02/09 06:38:18;;;;;;;39.37;28.97;;;-5.00;99.90;;;;;;4976087;28;20869;-80
2023/02/09 06:40:45;;;;;;;42.20;29.88;;;-5.00;99.90;;;;;;4995251;28;20383;-80
2023/02/09 06:43:11;;;;;;;42.38;29.63;;;-4.90;99.90;;;;;;4989756;28;20485;-79
2023/02/09 06:45:38;;;;;;;42.90;29.53;;;-4.90;99.90;;;;;;4978425;28;20836;-79
2023/02/09 06:48:05;;;;;;;39.60;29.37;;;-4.80;99.90;;;;;;4977637;28;20564;-79
2023/02/09 06:50:31;;;;;;;45.38;30.42;;;-4.80;99.90;;;;;;4993448;28;20381;-80
2023/02/09 06:52:57;;;;;;;42.42;29.55;;;-5.00;99.90;;;;;;4992184;28;20389;-80
2023/02/09 06:55:23;;;;;;;36.83;28.65;;;-4.80;99.90;;;;;;4982723;28;20582;-80
2023/02/09 06:57:49;;;;;;;41.53;28.60;;;-4.80;99.90;;;;;;4955515;28;20522;-82
2023/02/09 07:00:15;;;;;;;44.25;29.17;;;-4.80;99.90;;;;;;4962119;28;20892;-80
2023/02/09 07:02:42;;;;;;;40.97;29.25;;;-4.70;99.90;;;;;;4992027;28;20437;-80
2023/02/09 07:05:08;;;;;;;37.42;28.05;;;-4.60;99.90;;;;;;4990237;28;20498;-80
2023/02/09 07:07:35;;;;;;;39.00;28.70;;;-4.40;99.90;;;;;;4991537;28;20537;-80
2023/02/09 07:10:01;;;;;;;38.83;28.75;;;-4.30;99.90;;;;;;4991941;28;20400;-80
2023/02/09 07:12:27;;;;;;;37.45;28.35;;;-4.40;99.90;;;;;;4991836;28;20389;-80
2023/02/09 07:14:52;;;;;;;39.35;28.80;;;-4.30;99.90;;;;;;4989853;28;21137;-79
2023/02/09 07:17:18;;;;;;;36.15;27.00;;;-4.10;99.90;;;;;;4972889;28;20412;-80
2023/02/09 07:19:44;;;;;;;38.25;28.83;;;-4.00;99.90;;;;;;4992893;28;20888;-80
2023/02/09 07:22:09;;;;;;;38.40;27.88;;;-3.70;99.90;;;;;;4974057;28;20397;-79
2023/02/09 07:24:35;;;;;;;36.38;27.52;;;-3.90;99.90;;;;;;4992434;28;20478;-81
2023/02/09 07:27:02;;;;;;;36.47;26.92;;;-3.80;99.90;;;;;;4953472;28;21033;-79
2023/02/09 07:29:29;;;;;;;37.53;27.92;;;-3.70;99.90;;;;;;4973092;28;20466;-79
2023/02/09 07:31:55;;;;;;;36.70;26.90;;;-3.60;99.90;;;;;;4986132;28;21257;-79
2023/02/09 07:34:20;;;;;;;34.00;25.95;;;-3.50;99.90;;;;;;4992126;28;20473;-79
2023/02/09 07:36:46;;;;;;;35.20;26.53;;;-3.50;99.90;;;;;;4988184;28;20431;-80
2023/02/09 07:39:12;;;;;;;35.50;26.20;;;-3.30;99.90;;;;;;4974477;28;20414;-80
2023/02/09 07:41:37;;;;;;;34.47;26.60;;;-3.20;99.90;;;;;;4991803;28;20472;-80
2023/02/09 07:44:03;;;;;;;36.03;26.07;;;-3.10;99.90;;;;;;4989306;28;20440;-79
2023/02/09 07:46:28;;;;;;;35.67;25.70;;;-3.00;99.90;;;;;;4974561;28;20879;-79
2023/02/09 07:48:56;;;;;;;33.57;25.30;;;-2.80;99.90;;;;;;4992034;28;20487;-78
2023/02/09 07:51:24;;;;;;;34.17;25.70;;;-2.70;99.90;;;;;;4974495;28;20385;-79
2023/02/09 07:53:50;;;;;;;31.80;24.13;;;-2.70;99.90;;;;;;4983656;28;20417;-79
2023/02/09 07:56:16;;;;;;;34.22;25.15;;;-2.50;99.90;;;;;;4972576;28;20395;-80
2023/02/09 07:58:42;;;;;;;33.55;24.08;;;-2.50;99.90;;;;;;4972615;28;20390;-79
2023/02/09 08:01:10;;;;;;;33.50;24.90;;;-2.30;99.90;;;;;;4979639;28;20556;-79
2023/02/09 08:03:37;;;;;;;33.88;24.92;;;-2.10;99.90;;;;;;4974517;28;20850;-80
2023/02/09 08:06:17;;;;;;;30.95;23.90;;;-2.20;99.90;;;;;;4992075;28;20781;-80
2023/02/09 08:08:49;;;;;;;33.05;24.25;;;-2.10;99.90;;;;;;4991517;28;20388;-80
2023/02/09 08:11:35;;;;;;;32.35;24.58;;;-1.90;99.90;;;;;;4980292;28;20406;-79
2023/02/09 08:14:05;;;;;;;29.95;23.63;;;-1.90;99.90;;;;;;4955434;28;20473;-80
2023/02/09 08:16:33;;;;;;;29.42;22.98;;;-1.80;99.90;;;;;;4971506;28;20741;-80
2023/02/09 08:19:13;;;;;;;29.45;23.48;;;-1.70;99.90;;;;;;4970956;28;20371;-80
2023/02/09 08:21:43;;;;;;;30.10;22.70;;;-1.50;99.90;;;;;;4991957;28;20815;-80
2023/02/09 08:24:11;;;;;;;31.33;23.00;;;-1.30;99.90;;;;;;4991981;28;20424;-80
2023/02/09 08:26:38;;;;;;;29.25;22.00;;;-1.40;99.90;;;;;;4973985;28;20811;-80
2023/02/09 08:29:05;;;;;;;29.70;22.08;;;-1.30;99.90;;;;;;4989949;28;20381;-80
2023/02/09 08:31:31;;;;;;;28.13;21.73;;;-1.20;99.90;;;;;;4951872;28;20909;-80
2023/02/09 08:33:56;;;;;;;27.03;20.63;;;-1.00;99.90;;;;;;4967456;28;20396;-79
2023/02/09 08:36:22;;;;;;;29.73;20.23;;;-0.70;99.90;;;;;;4990562;28;20380;-79
2023/02/09 08:38:48;;;;;;;27.27;20.70;;;-0.30;99.90;;;;;;4983993;28;20386;-78
2023/02/09 08:41:16;;;;;;;27.10;20.77;;;-0.20;99.90;;;;;;4988004;28;20408;-78
2023/02/09 08:43:41;;;;;;;26.77;20.58;;;-0.10;99.90;;;;;;4991331;28;20407;-79
2023/02/09 08:46:10;;;;;;;25.67;19.70;;;0.40;99.90;;;;;;4987533;28;20400;-79
2023/02/09 08:48:39;;;;;;;26.00;19.88;;;0.20;99.90;;;;;;4990725;28;20377;-79
2023/02/09 08:51:07;;;;;;;27.50;19.50;;;0.10;99.90;;;;;;4974494;28;20385;-79
2023/02/09 08:53:33;;;;;;;25.17;18.65;;;0.30;99.90;;;;;;4991350;28;20396;-80
2023/02/09 08:55:58;;;;;;;25.83;18.65;;;0.60;99.90;;;;;;4970799;28;21040;-79
2023/02/09 08:58:25;;;;;;;25.10;18.25;;;0.80;99.90;;;;;;4989917;28;20455;-79
2023/02/09 09:00:58;;;;;;;23.83;18.52;;;0.80;99.90;;;;;;4990857;28;20408;-79
2023/02/09 09:03:26;;;;;;;25.55;18.35;;;0.70;99.90;;;;;;4990259;28;20807;-79
2023/02/09 09:06:04;;;;;;;24.45;18.38;;;1.00;99.90;;;;;;4987790;28;20483;-79
2023/02/09 09:08:31;;;;;;;24.48;17.17;;;1.50;99.90;;;;;;4990117;28;20376;-80
2023/02/09 09:10:57;;;;;;;21.85;17.23;;;2.00;99.90;;;;;;4990279;28;20404;-80
2023/02/09 09:13:23;;;;;;;21.60;16.37;;;2.20;99.90;;;;;;4969904;28;20466;-79
2023/02/09 09:15:50;;;;;;;21.05;16.33;;;2.50;99.90;;;;;;4990937;28;20413;-79
2023/02/09 09:18:16;;;;;;;22.33;17.02;;;2.50;99.90;;;;;;4988977;28;21674;-79
2023/02/09 09:20:41;;;;;;;28.25;16.70;;;2.90;99.90;;;;;;4971824;28;20492;-79
2023/02/09 09:23:08;;;;;;;21.60;16.52;;;3.10;99.90;;;;;;4988844;28;20775;-80
2023/02/09 09:25:33;;;;;;;20.08;15.93;;;3.60;99.90;;;;;;4988871;28;20431;-80
2023/02/09 09:27:59;;;;;;;19.35;15.18;;;4.00;99.90;;;;;;4989100;28;20409;-80
2023/02/09 09:30:25;;;;;;;20.30;15.38;;;3.10;99.90;;;;;;4990631;28;20380;-80
2023/02/09 09:32:51;;;;;;;18.23;14.73;;;2.80;99.90;;;;;;4972547;28;20503;-80
2023/02/09 09:35:17;;;;;;;93.45;21.10;;;3.10;99.90;;;;;;4953084;28;20399;-79
2023/02/09 09:37:42;;;;;;;26.00;15.48;;;3.40;99.90;;;;;;4956184;28;20468;-80
2023/02/09 09:40:23;;;;;;;76.53;18.05;;;3.20;99.90;;;;;;4972402;28;20486;-79
2023/02/09 09:42:57;;;;;;;18.20;14.38;;;3.50;99.90;;;;;;4956884;28;20417;-79
2023/02/09 09:45:26;;;;;;;22.35;15.05;;;3.40;99.90;;;;;;4972751;28;20485;-79
2023/02/09 09:47:52;;;;;;;22.70;15.20;;;3.30;99.90;;;;;;4967690;28;20390;-80
2023/02/09 09:50:28;;;;;;;31.17;14.27;;;3.30;99.90;;;;;;4967886;28;20458;-80
2023/02/09 09:53:02;;;;;;;19.60;13.45;;;3.70;99.90;;;;;;4969468;28;20397;-81
2023/02/09 09:55:29;;;;;;;18.00;14.65;;;4.20;99.90;;;;;;4972345;28;20499;-80
2023/02/09 09:57:59;;;;;;;18.95;13.85;;;4.50;99.90;;;;;;4960337;28;20407;-80
2023/02/09 10:00:27;;;;;;;18.63;14.00;;;4.30;99.90;;;;;;4974089;28;20414;-80
2023/02/09 10:02:53;;;;;;;22.70;14.83;;;4.10;99.90;;;;;;4933001;28;20422;-80
2023/02/09 10:05:23;;;;;;;18.80;14.20;;;3.70;99.90;;;;;;4969488;28;21030;-79
2023/02/09 10:07:56;;;;;;;20.30;14.63;;;3.60;99.90;;;;;;4970272;28;20466;-80
2023/02/09 10:10:37;;;;;;;20.15;13.77;;;3.80;99.90;;;;;;4967551;28;20394;-80
2023/02/09 10:13:15;;;;;;;18.90;14.10;;;4.50;99.90;;;;;;4969733;28;20397;-80
2023/02/09 10:15:45;;;;;;;18.20;12.80;;;4.50;99.90;;;;;;4970443;28;20995;-81
2023/02/09 10:18:14;;;;;;;17.67;13.93;;;4.70;99.90;;;;;;4968998;28;20486;-80
2023/02/09 10:20:49;;;;;;;18.40;14.05;;;4.90;99.90;;;;;;4983972;28;20392;-80
2023/02/09 10:23:16;;;;;;;16.92;13.70;;;4.60;99.90;;;;;;4949684;29;20470;-80
2023/02/09 10:25:59;;;;;;;17.40;13.35;;;4.70;99.90;;;;;;4950673;28;20403;-80
2023/02/09 10:28:28;;;;;;;17.20;13.32;;;4.60;99.90;;;;;;4950141;29;20971;-80
2023/02/09 10:30:58;;;;;;;17.20;13.05;;;4.10;99.90;;;;;;4950438;28;20487;-80
2023/02/09 10:33:25;;;;;;;19.83;13.82;;;4.30;99.90;;;;;;4950594;28;21174;-80
2023/02/09 10:35:58;;;;;;;17.65;13.68;;;4.70;99.90;;;;;;4941817;28;20431;-80
2023/02/09 10:38:29;;;;;;;17.20;13.00;;;4.10;99.90;;;;;;4968310;28;20492;-81
2023/02/09 10:40:55;;;;;;;16.88;13.32;;;4.40;99.90;;;;;;4968982;28;20869;-80
2023/02/09 10:43:33;;;;;;;17.45;13.07;;;4.50;99.90;;;;;;4968624;28;20472;-80
2023/02/09 10:46:19;;;;;;;17.80;13.50;;;4.70;99.90;;;;;;4969736;28;20387;-80
2023/02/09 10:48:46;;;;;;;17.08;13.02;;;4.80;99.90;;;;;;4969113;28;20397;-81
2023/02/09 10:51:14;;;;;;;16.17;12.82;;;4.90;99.90;;;;;;4969929;28;20393;-80
2023/02/09 10:53:59;;;;;;;16.50;12.95;;;4.70;99.90;;;;;;4951894;28;20382;-80
2023/02/09 10:56:32;;;;;;;16.92;12.02;;;4.90;99.90;;;;;;4969207;28;20383;-79
2023/02/09 10:58:59;;;;;;;16.25;12.07;;;4.70;99.90;;;;;;4969414;28;20379;-80
2023/02/09 11:01:31;;;;;;;17.08;13.10;;;4.50;99.90;;;;;;4969351;28;20378;-81
2023/02/09 11:03:57;;;;;;;18.60;12.02;;;4.50;99.90;;;;;;4966299;28;20422;-80
2023/02/09 11:06:22;;;;;;;16.85;12.80;;;4.70;99.90;;;;;;4983072;28;20423;-81
2023/02/09 11:09:02;;;;;;;16.53;11.13;;;4.80;99.90;;;;;;4986386;28;20427;-80
2023/02/09 11:11:39;;;;;;;16.40;12.23;;;5.20;99.90;;;;;;4975937;28;20375;-80
2023/02/09 11:14:18;;;;;;;19.88;12.25;;;5.30;99.90;;;;;;4972340;28;20480;-80
2023/02/09 11:16:43;;;;;;;16.77;11.73;;;5.60;99.90;;;;;;4987638;28;20431;-80
2023/02/09 11:19:30;;;;;;;14.32;11.10;;;5.50;99.90;;;;;;4989041;28;20463;-80
2023/02/09 11:22:27;;;;;;;14.63;11.65;;;5.50;99.90;;;;;;4990029;28;20399;-80
2023/02/09 11:25:13;;;;;;;15.15;11.52;;;5.00;99.90;;;;;;4988618;28;20887;-80
2023/02/09 11:27:45;;;;;;;15.52;10.93;;;5.40;99.90;;;;;;4990291;28;20519;-80
2023/02/09 11:30:29;;;;;;;15.90;11.40;;;5.40;99.90;;;;;;4974414;28;20447;-79
2023/02/09 11:33:08;;;;;;;14.35;11.68;;;5.30;99.90;;;;;;4991897;28;20377;-80
2023/02/09 11:35:57;;;;;;;16.15;11.60;;;5.50;99.90;;;;;;4984712;28;20406;-80
2023/02/09 11:38:53;;;;;;;15.65;12.00;;;5.00;99.90;;;;;;4952373;28;20387;-80
2023/02/09 11:44:38;;;;;;;14.68;11.60;;;4.80;99.90;;;;;;4973341;28;20437;-80
2023/02/09 11:47:29;;;;;;;18.02;11.40;;;4.30;99.90;;;;;;4970819;28;20413;-80
2023/02/09 11:49:59;;;;;;;14.50;11.27;;;4.10;99.90;;;;;;4971687;28;20390;-80
2023/02/09 11:52:35;;;;;;;14.18;11.32;;;3.70;99.90;;;;;;4970485;28;20470;-80
2023/02/09 11:55:07;;;;;;;15.68;12.13;;;3.50;99.90;;;;;;4971032;28;20732;-80
2023/02/09 11:57:42;;;;;;;14.93;11.68;;;3.50;99.90;;;;;;4966099;28;20410;-80
2023/02/09 12:00:20;;;;;;;14.20;11.43;;;3.40;99.90;;;;;;4973095;28;20390;-80
2023/02/09 12:02:56;;;;;;;14.43;12.18;;;3.50;99.90;;;;;;4945763;28;20414;-81
2023/02/09 12:05:23;;;;;;;15.55;12.05;;;3.60;99.90;;;;;;4969094;28;20429;-80
2023/02/09 12:07:48;;;;;;;15.45;11.88;;;3.70;99.90;;;;;;4969038;28;20391;-79
2023/02/09 12:10:28;;;;;;;16.42;12.43;;;3.60;99.90;;;;;;4969564;28;20402;-80
2023/02/09 12:13:18;;;;;;;15.93;13.05;;;3.70;99.90;;;;;;4967869;28;20489;-80
2023/02/09 12:16:12;;;;;;;15.27;12.43;;;3.80;99.90;;;;;;4949103;28;20434;-81
2023/02/09 12:18:40;;;;;;;16.60;12.97;;;3.80;99.90;;;;;;4958362;28;20454;-80
2023/02/09 12:21:08;;;;;;;14.73;11.90;;;3.80;99.90;;;;;;4971029;28;20517;-80
2023/02/09 12:23:43;;;;;;;15.93;13.05;;;3.70;99.90;;;;;;4971209;28;20941;-80
2023/02/09 12:26:15;;;;;;;15.38;11.82;;;3.80;99.90;;;;;;4953684;28;20719;-80
2023/02/09 12:29:26;;;;;;;15.77;12.37;;;3.80;99.90;;;;;;4964414;28;20415;-79
2023/02/09 12:32:26;;;;;;;17.23;12.43;;;3.90;99.90;;;;;;4970997;28;20414;-80
2023/02/09 12:35:16;;;;;;;16.23;12.50;;;4.00;99.90;;;;;;4946207;28;20407;-80
2023/02/09 12:38:14;;;;;;;15.75;11.82;;;4.10;99.90;;;;;;4969124;28;20473;-81
2023/02/09 12:40:43;;;;;;;15.65;12.65;;;4.30;99.90;;;;;;4970473;28;20382;-80
2023/02/09 12:43:12;;;;;;;16.15;12.40;;;4.20;99.90;;;;;;4970320;28;20488;-81
2023/02/09 12:45:41;;;;;;;16.90;12.98;;;4.20;99.90;;;;;;4950418;28;20434;-80
2023/02/09 12:48:07;;;;;;;15.13;12.40;;;4.10;99.90;;;;;;4969990;28;20539;-77
2023/02/09 12:50:54;;;;;;;15.97;12.30;;;3.90;99.90;;;;;;4952995;28;20518;-80
2023/02/09 12:53:29;;;;;;;17.45;12.25;;;4.00;99.90;;;;;;4960432;28;20414;-80
2023/02/09 12:56:03;;;;;;;19.00;13.15;;;3.90;99.90;;;;;;4967742;28;20406;-79
2023/02/09 12:58:45;;;;;;;14.47;11.97;;;4.00;99.90;;;;;;4966054;28;20395;-79